sensor_id;sensor_type;location;lat;lon;timestamp;P1;durP1;ratioP1;P2;durP2;ratioP2
58294;SDS011;45705;55.592;37.460;2023-04-24T00:00:14;12.05;;;5.97;;
58294;SDS011;45705;55.592;37.460;2023-04-24T00:02:41;12.80;;;6.68;;
58294;SDS011;45705;55.592;37.460;2023-04-24T00:07:35;13.48;;;7.10;;
58294;SDS011;45705;55.592;37.460;2023-04-24T00:10:01;12.07;;;6.22;;
58294;SDS011;45705;55.592;37.460;2023-04-24T00:12:29;14.52;;;6.25;;
58294;SDS011;45705;55.592;37.460;2023-04-24T00:14:54;15.43;;;6.63;;
58294;SDS011;45705;55.592;37.460;2023-04-24T00:17:20;11.93;;;6.85;;
58294;SDS011;45705;55.592;37.460;2023-04-24T00:19:46;14.95;;;6.85;;
58294;SDS011;45705;55.592;37.460;2023-04-24T00:22:13;15.65;;;6.20;;
58294;SDS011;45705;55.592;37.460;2023-04-24T00:24:40;17.75;;;6.93;;
58294;SDS011;45705;55.592;37.460;2023-04-24T00:27:05;12.25;;;6.78;;
58294;SDS011;45705;55.592;37.460;2023-04-24T00:29:31;13.20;;;7.05;;
58294;SDS011;45705;55.592;37.460;2023-04-24T00:31:57;12.27;;;6.45;;
58294;SDS011;45705;55.592;37.460;2023-04-24T00:34:22;14.05;;;6.63;;
58294;SDS011;45705;55.592;37.460;2023-04-24T00:36:48;18.58;;;6.78;;
58294;SDS011;45705;55.592;37.460;2023-04-24T00:39:18;10.57;;;6.30;;
58294;SDS011;45705;55.592;37.460;2023-04-24T00:41:44;11.88;;;6.15;;
58294;SDS011;45705;55.592;37.460;2023-04-24T00:44:11;9.15;;;5.97;;
58294;SDS011;45705;55.592;37.460;2023-04-24T00:46:37;11.05;;;6.38;;
58294;SDS011;45705;55.592;37.460;2023-04-24T00:49:04;14.30;;;6.65;;
58294;SDS011;45705;55.592;37.460;2023-04-24T00:51:31;12.50;;;6.50;;
58294;SDS011;45705;55.592;37.460;2023-04-24T00:53:58;9.18;;;6.30;;
58294;SDS011;45705;55.592;37.460;2023-04-24T00:56:25;12.75;;;6.35;;
58294;SDS011;45705;55.592;37.460;2023-04-24T00:58:50;9.32;;;6.43;;
58294;SDS011;45705;55.592;37.460;2023-04-24T01:01:17;11.05;;;6.80;;
58294;SDS011;45705;55.592;37.460;2023-04-24T01:03:46;14.48;;;6.95;;
58294;SDS011;45705;55.592;37.460;2023-04-24T01:06:12;17.42;;;6.93;;
58294;SDS011;45705;55.592;37.460;2023-04-24T01:08:39;14.90;;;8.05;;
58294;SDS011;45705;55.592;37.460;2023-04-24T01:11:06;16.08;;;7.03;;
58294;SDS011;45705;55.592;37.460;2023-04-24T01:13:32;10.40;;;7.13;;
58294;SDS011;45705;55.592;37.460;2023-04-24T01:15:59;15.30;;;8.10;;
58294;SDS011;45705;55.592;37.460;2023-04-24T01:18:26;13.50;;;7.30;;
58294;SDS011;45705;55.592;37.460;2023-04-24T01:20:53;12.25;;;7.35;;
58294;SDS011;45705;55.592;37.460;2023-04-24T01:23:23;17.17;;;8.45;;
58294;SDS011;45705;55.592;37.460;2023-04-24T01:25:50;17.63;;;7.60;;
58294;SDS011;45705;55.592;37.460;2023-04-24T01:28:17;14.75;;;7.60;;
58294;SDS011;45705;55.592;37.460;2023-04-24T01:30:43;13.38;;;8.40;;
58294;SDS011;45705;55.592;37.460;2023-04-24T01:33:10;14.75;;;8.20;;
58294;SDS011;45705;55.592;37.460;2023-04-24T01:35:37;18.60;;;7.93;;
58294;SDS011;45705;55.592;37.460;2023-04-24T01:38:03;19.52;;;8.43;;
58294;SDS011;45705;55.592;37.460;2023-04-24T01:40:30;11.02;;;8.23;;
58294;SDS011;45705;55.592;37.460;2023-04-24T01:42:57;13.85;;;8.45;;
58294;SDS011;45705;55.592;37.460;2023-04-24T01:45:23;15.60;;;9.05;;
58294;SDS011;45705;55.592;37.460;2023-04-24T01:47:49;14.30;;;8.75;;
58294;SDS011;45705;55.592;37.460;2023-04-24T01:50:16;14.40;;;8.50;;
58294;SDS011;45705;55.592;37.460;2023-04-24T01:52:43;16.58;;;9.15;;
58294;SDS011;45705;55.592;37.460;2023-04-24T01:55:09;14.00;;;8.80;;
58294;SDS011;45705;55.592;37.460;2023-04-24T01:57:36;18.13;;;8.60;;
58294;SDS011;45705;55.592;37.460;2023-04-24T02:00:03;16.77;;;8.50;;
58294;SDS011;45705;55.592;37.460;2023-04-24T02:02:41;13.40;;;8.80;;
58294;SDS011;45705;55.592;37.460;2023-04-24T02:05:08;16.00;;;9.18;;
58294;SDS011;45705;55.592;37.460;2023-04-24T02:07:36;13.50;;;9.02;;
58294;SDS011;45705;55.592;37.460;2023-04-24T02:10:02;13.13;;;8.45;;
58294;SDS011;45705;55.592;37.460;2023-04-24T02:12:29;18.25;;;9.00;;
58294;SDS011;45705;55.592;37.460;2023-04-24T02:14:55;14.35;;;9.05;;
58294;SDS011;45705;55.592;37.460;2023-04-24T02:17:21;15.07;;;9.45;;
58294;SDS011;45705;55.592;37.460;2023-04-24T02:19:47;15.30;;;9.45;;
58294;SDS011;45705;55.592;37.460;2023-04-24T02:22:13;16.38;;;9.25;;
58294;SDS011;45705;55.592;37.460;2023-04-24T02:24:39;15.57;;;9.57;;
58294;SDS011;45705;55.592;37.460;2023-04-24T02:27:05;13.48;;;9.30;;
58294;SDS011;45705;55.592;37.460;2023-04-24T02:29:31;12.10;;;9.25;;
58294;SDS011;45705;55.592;37.460;2023-04-24T02:31:57;17.02;;;10.45;;
58294;SDS011;45705;55.592;37.460;2023-04-24T02:34:23;14.85;;;9.63;;
58294;SDS011;45705;55.592;37.460;2023-04-24T02:36:48;14.57;;;9.52;;
58294;SDS011;45705;55.592;37.460;2023-04-24T02:39:14;16.58;;;9.45;;
58294;SDS011;45705;55.592;37.460;2023-04-24T02:41:42;16.98;;;9.55;;
58294;SDS011;45705;55.592;37.460;2023-04-24T02:44:08;15.70;;;10.13;;
58294;SDS011;45705;55.592;37.460;2023-04-24T02:46:34;13.00;;;9.48;;
58294;SDS011;45705;55.592;37.460;2023-04-24T02:48:59;14.25;;;8.90;;
58294;SDS011;45705;55.592;37.460;2023-04-24T02:51:25;17.50;;;10.13;;
58294;SDS011;45705;55.592;37.460;2023-04-24T02:53:52;14.93;;;10.25;;
58294;SDS011;45705;55.592;37.460;2023-04-24T02:56:18;17.27;;;10.35;;
58294;SDS011;45705;55.592;37.460;2023-04-24T02:58:44;16.77;;;10.02;;
58294;SDS011;45705;55.592;37.460;2023-04-24T03:01:09;17.52;;;10.50;;
58294;SDS011;45705;55.592;37.460;2023-04-24T03:03:38;16.48;;;9.77;;
58294;SDS011;45705;55.592;37.460;2023-04-24T03:06:04;18.05;;;9.75;;
58294;SDS011;45705;55.592;37.460;2023-04-24T03:08:34;15.60;;;8.98;;
58294;SDS011;45705;55.592;37.460;2023-04-24T03:11:00;16.40;;;9.52;;
58294;SDS011;45705;55.592;37.460;2023-04-24T03:13:26;16.15;;;10.25;;
58294;SDS011;45705;55.592;37.460;2023-04-24T03:15:51;13.70;;;9.57;;
58294;SDS011;45705;55.592;37.460;2023-04-24T03:18:18;16.35;;;9.65;;
58294;SDS011;45705;55.592;37.460;2023-04-24T03:20:46;18.80;;;10.02;;
58294;SDS011;45705;55.592;37.460;2023-04-24T03:23:13;11.68;;;8.88;;
58294;SDS011;45705;55.592;37.460;2023-04-24T03:25:39;15.18;;;9.25;;
58294;SDS011;45705;55.592;37.460;2023-04-24T03:28:06;14.93;;;9.40;;
58294;SDS011;45705;55.592;37.460;2023-04-24T03:30:54;17.25;;;9.30;;
58294;SDS011;45705;55.592;37.460;2023-04-24T03:33:22;15.85;;;9.07;;
58294;SDS011;45705;55.592;37.460;2023-04-24T03:35:56;17.15;;;9.43;;
58294;SDS011;45705;55.592;37.460;2023-04-24T03:38:22;12.65;;;8.82;;
58294;SDS011;45705;55.592;37.460;2023-04-24T03:41:00;13.57;;;8.52;;
58294;SDS011;45705;55.592;37.460;2023-04-24T03:43:39;13.32;;;8.80;;
58294;SDS011;45705;55.592;37.460;2023-04-24T03:46:06;13.82;;;9.23;;
58294;SDS011;45705;55.592;37.460;2023-04-24T03:48:38;15.57;;;8.73;;
58294;SDS011;45705;55.592;37.460;2023-04-24T03:51:04;18.05;;;9.07;;
58294;SDS011;45705;55.592;37.460;2023-04-24T03:53:31;13.45;;;8.93;;
58294;SDS011;45705;55.592;37.460;2023-04-24T03:55:58;11.02;;;8.45;;
58294;SDS011;45705;55.592;37.460;2023-04-24T03:58:24;14.50;;;9.38;;
58294;SDS011;45705;55.592;37.460;2023-04-24T04:00:51;13.25;;;8.73;;
58294;SDS011;45705;55.592;37.460;2023-04-24T04:03:36;16.83;;;8.95;;
58294;SDS011;45705;55.592;37.460;2023-04-24T04:06:02;14.70;;;9.23;;
58294;SDS011;45705;55.592;37.460;2023-04-24T04:08:28;14.50;;;8.80;;
58294;SDS011;45705;55.592;37.460;2023-04-24T04:10:54;18.27;;;8.50;;
58294;SDS011;45705;55.592;37.460;2023-04-24T04:13:20;11.23;;;8.52;;
58294;SDS011;45705;55.592;37.460;2023-04-24T04:15:45;13.77;;;8.45;;
58294;SDS011;45705;55.592;37.460;2023-04-24T04:18:12;17.88;;;8.90;;
58294;SDS011;45705;55.592;37.460;2023-04-24T04:20:38;17.40;;;8.90;;
58294;SDS011;45705;55.592;37.460;2023-04-24T04:23:04;17.40;;;8.57;;
58294;SDS011;45705;55.592;37.460;2023-04-24T04:25:42;13.77;;;8.57;;
58294;SDS011;45705;55.592;37.460;2023-04-24T04:28:07;16.08;;;8.73;;
58294;SDS011;45705;55.592;37.460;2023-04-24T04:30:33;15.57;;;9.75;;
58294;SDS011;45705;55.592;37.460;2023-04-24T04:33:02;21.80;;;9.40;;
58294;SDS011;45705;55.592;37.460;2023-04-24T04:35:29;16.92;;;8.60;;
58294;SDS011;45705;55.592;37.460;2023-04-24T04:37:55;13.23;;;9.07;;
58294;SDS011;45705;55.592;37.460;2023-04-24T04:40:43;15.47;;;8.60;;
58294;SDS011;45705;55.592;37.460;2023-04-24T04:43:10;15.43;;;8.48;;
58294;SDS011;45705;55.592;37.460;2023-04-24T04:45:44;19.55;;;8.70;;
58294;SDS011;45705;55.592;37.460;2023-04-24T04:48:25;17.85;;;8.57;;
58294;SDS011;45705;55.592;37.460;2023-04-24T04:50:54;15.93;;;8.98;;
58294;SDS011;45705;55.592;37.460;2023-04-24T04:53:21;18.70;;;9.23;;
58294;SDS011;45705;55.592;37.460;2023-04-24T04:55:47;16.48;;;8.77;;
58294;SDS011;45705;55.592;37.460;2023-04-24T04:58:14;15.90;;;8.70;;
58294;SDS011;45705;55.592;37.460;2023-04-24T05:00:41;14.88;;;9.20;;
58294;SDS011;45705;55.592;37.460;2023-04-24T05:03:22;12.90;;;8.95;;
58294;SDS011;45705;55.592;37.460;2023-04-24T05:05:59;19.65;;;9.25;;
58294;SDS011;45705;55.592;37.460;2023-04-24T05:08:26;18.73;;;9.27;;
58294;SDS011;45705;55.592;37.460;2023-04-24T05:10:52;19.30;;;9.40;;
58294;SDS011;45705;55.592;37.460;2023-04-24T05:13:18;12.50;;;8.70;;
58294;SDS011;45705;55.592;37.460;2023-04-24T05:15:43;14.18;;;9.23;;
58294;SDS011;45705;55.592;37.460;2023-04-24T05:18:09;12.30;;;8.88;;
58294;SDS011;45705;55.592;37.460;2023-04-24T05:20:36;16.48;;;9.90;;
58294;SDS011;45705;55.592;37.460;2023-04-24T05:23:02;14.93;;;8.23;;
58294;SDS011;45705;55.592;37.460;2023-04-24T05:25:29;16.77;;;9.45;;
58294;SDS011;45705;55.592;37.460;2023-04-24T05:28:02;16.30;;;9.43;;
58294;SDS011;45705;55.592;37.460;2023-04-24T05:30:28;14.30;;;8.70;;
58294;SDS011;45705;55.592;37.460;2023-04-24T05:32:54;12.05;;;9.15;;
58294;SDS011;45705;55.592;37.460;2023-04-24T05:35:20;13.73;;;8.95;;
58294;SDS011;45705;55.592;37.460;2023-04-24T05:37:46;14.38;;;8.57;;
58294;SDS011;45705;55.592;37.460;2023-04-24T05:40:14;15.15;;;8.15;;
58294;SDS011;45705;55.592;37.460;2023-04-24T05:42:41;23.45;;;9.25;;
58294;SDS011;45705;55.592;37.460;2023-04-24T05:45:07;18.67;;;8.98;;
58294;SDS011;45705;55.592;37.460;2023-04-24T05:47:34;13.88;;;8.30;;
58294;SDS011;45705;55.592;37.460;2023-04-24T05:49:59;14.93;;;8.55;;
58294;SDS011;45705;55.592;37.460;2023-04-24T05:52:25;19.92;;;8.38;;
58294;SDS011;45705;55.592;37.460;2023-04-24T05:54:51;16.02;;;8.85;;
58294;SDS011;45705;55.592;37.460;2023-04-24T05:57:23;15.82;;;8.75;;
58294;SDS011;45705;55.592;37.460;2023-04-24T05:59:56;19.35;;;8.43;;
58294;SDS011;45705;55.592;37.460;2023-04-24T06:02:22;13.45;;;8.73;;
58294;SDS011;45705;55.592;37.460;2023-04-24T06:04:48;17.98;;;8.35;;
58294;SDS011;45705;55.592;37.460;2023-04-24T06:07:14;16.15;;;8.18;;
58294;SDS011;45705;55.592;37.460;2023-04-24T06:09:42;16.85;;;8.38;;
58294;SDS011;45705;55.592;37.460;2023-04-24T06:12:07;17.10;;;8.07;;
58294;SDS011;45705;55.592;37.460;2023-04-24T06:14:54;15.75;;;8.65;;
58294;SDS011;45705;55.592;37.460;2023-04-24T06:17:26;13.02;;;7.97;;
58294;SDS011;45705;55.592;37.460;2023-04-24T06:19:52;14.57;;;7.97;;
58294;SDS011;45705;55.592;37.460;2023-04-24T06:22:19;12.73;;;8.15;;
58294;SDS011;45705;55.592;37.460;2023-04-24T06:24:45;17.73;;;7.95;;
58294;SDS011;45705;55.592;37.460;2023-04-24T06:27:13;15.48;;;8.80;;
58294;SDS011;45705;55.592;37.460;2023-04-24T06:29:40;14.23;;;8.00;;
58294;SDS011;45705;55.592;37.460;2023-04-24T06:32:05;13.35;;;8.55;;
58294;SDS011;45705;55.592;37.460;2023-04-24T06:34:31;15.60;;;8.82;;
58294;SDS011;45705;55.592;37.460;2023-04-24T06:36:59;15.48;;;8.38;;
58294;SDS011;45705;55.592;37.460;2023-04-24T06:39:25;18.35;;;8.80;;
58294;SDS011;45705;55.592;37.460;2023-04-24T06:41:51;17.23;;;7.70;;
58294;SDS011;45705;55.592;37.460;2023-04-24T06:44:19;17.13;;;8.55;;
58294;SDS011;45705;55.592;37.460;2023-04-24T06:46:45;15.55;;;7.93;;
58294;SDS011;45705;55.592;37.460;2023-04-24T06:49:11;18.25;;;7.47;;
58294;SDS011;45705;55.592;37.460;2023-04-24T06:51:36;12.52;;;7.85;;
58294;SDS011;45705;55.592;37.460;2023-04-24T06:54:02;17.67;;;7.93;;
58294;SDS011;45705;55.592;37.460;2023-04-24T06:56:27;16.60;;;7.20;;
58294;SDS011;45705;55.592;37.460;2023-04-24T06:58:54;13.93;;;7.80;;
58294;SDS011;45705;55.592;37.460;2023-04-24T07:01:20;16.75;;;7.03;;
58294;SDS011;45705;55.592;37.460;2023-04-24T07:03:45;10.68;;;6.95;;
58294;SDS011;45705;55.592;37.460;2023-04-24T07:06:11;11.75;;;6.82;;
58294;SDS011;45705;55.592;37.460;2023-04-24T07:08:37;10.48;;;6.32;;
58294;SDS011;45705;55.592;37.460;2023-04-24T07:11:04;7.60;;;5.90;;
58294;SDS011;45705;55.592;37.460;2023-04-24T07:13:30;13.50;;;6.20;;
58294;SDS011;45705;55.592;37.460;2023-04-24T07:15:55;10.25;;;5.70;;
58294;SDS011;45705;55.592;37.460;2023-04-24T07:18:21;12.10;;;5.70;;
58294;SDS011;45705;55.592;37.460;2023-04-24T07:20:47;9.70;;;5.55;;
58294;SDS011;45705;55.592;37.460;2023-04-24T07:23:15;9.57;;;5.07;;
58294;SDS011;45705;55.592;37.460;2023-04-24T07:25:41;8.55;;;5.18;;
58294;SDS011;45705;55.592;37.460;2023-04-24T07:28:07;7.32;;;4.95;;
58294;SDS011;45705;55.592;37.460;2023-04-24T07:30:33;13.05;;;5.47;;
58294;SDS011;45705;55.592;37.460;2023-04-24T07:32:59;13.93;;;5.70;;
58294;SDS011;45705;55.592;37.460;2023-04-24T07:35:25;10.23;;;5.57;;
58294;SDS011;45705;55.592;37.460;2023-04-24T07:37:54;7.85;;;4.55;;
58294;SDS011;45705;55.592;37.460;2023-04-24T07:40:20;10.95;;;5.15;;
58294;SDS011;45705;55.592;37.460;2023-04-24T07:42:47;7.13;;;5.03;;
58294;SDS011;45705;55.592;37.460;2023-04-24T07:45:16;6.45;;;4.72;;
58294;SDS011;45705;55.592;37.460;2023-04-24T07:47:42;16.27;;;8.68;;
58294;SDS011;45705;55.592;37.460;2023-04-24T07:50:11;8.50;;;4.43;;
58294;SDS011;45705;55.592;37.460;2023-04-24T07:52:38;6.78;;;4.65;;
58294;SDS011;45705;55.592;37.460;2023-04-24T07:55:04;10.05;;;4.97;;
58294;SDS011;45705;55.592;37.460;2023-04-24T07:57:31;6.78;;;4.40;;
58294;SDS011;45705;55.592;37.460;2023-04-24T07:59:56;6.75;;;4.60;;
58294;SDS011;45705;55.592;37.460;2023-04-24T08:02:22;10.98;;;5.15;;
58294;SDS011;45705;55.592;37.460;2023-04-24T08:04:52;8.73;;;4.93;;
58294;SDS011;45705;55.592;37.460;2023-04-24T08:07:20;11.00;;;4.80;;
58294;SDS011;45705;55.592;37.460;2023-04-24T08:09:46;5.40;;;4.50;;
58294;SDS011;45705;55.592;37.460;2023-04-24T08:12:12;5.53;;;4.50;;
58294;SDS011;45705;55.592;37.460;2023-04-24T08:14:38;12.07;;;5.35;;
58294;SDS011;45705;55.592;37.460;2023-04-24T08:17:03;16.67;;;5.70;;
58294;SDS011;45705;55.592;37.460;2023-04-24T08:19:29;11.63;;;5.00;;
58294;SDS011;45705;55.592;37.460;2023-04-24T08:21:55;8.02;;;4.82;;
58294;SDS011;45705;55.592;37.460;2023-04-24T08:24:20;7.85;;;4.95;;
58294;SDS011;45705;55.592;37.460;2023-04-24T08:26:47;6.22;;;5.10;;
58294;SDS011;45705;55.592;37.460;2023-04-24T08:29:15;7.05;;;4.68;;
58294;SDS011;45705;55.592;37.460;2023-04-24T08:31:41;11.73;;;5.30;;
58294;SDS011;45705;55.592;37.460;2023-04-24T08:34:07;8.05;;;4.47;;
58294;SDS011;45705;55.592;37.460;2023-04-24T08:36:32;7.70;;;4.82;;
58294;SDS011;45705;55.592;37.460;2023-04-24T08:38:58;7.60;;;5.13;;
58294;SDS011;45705;55.592;37.460;2023-04-24T08:41:24;6.90;;;4.60;;
58294;SDS011;45705;55.592;37.460;2023-04-24T08:43:51;8.00;;;4.90;;
58294;SDS011;45705;55.592;37.460;2023-04-24T08:46:17;8.48;;;4.93;;
58294;SDS011;45705;55.592;37.460;2023-04-24T08:48:44;8.20;;;4.95;;
58294;SDS011;45705;55.592;37.460;2023-04-24T08:51:10;15.40;;;4.68;;
58294;SDS011;45705;55.592;37.460;2023-04-24T08:53:36;18.40;;;5.22;;
58294;SDS011;45705;55.592;37.460;2023-04-24T08:56:02;6.00;;;4.50;;
58294;SDS011;45705;55.592;37.460;2023-04-24T08:58:28;7.50;;;4.63;;
58294;SDS011;45705;55.592;37.460;2023-04-24T09:00:54;9.98;;;5.00;;
58294;SDS011;45705;55.592;37.460;2023-04-24T09:03:21;11.30;;;5.38;;
58294;SDS011;45705;55.592;37.460;2023-04-24T09:05:47;5.30;;;4.35;;
58294;SDS011;45705;55.592;37.460;2023-04-24T09:08:14;8.90;;;4.53;;
58294;SDS011;45705;55.592;37.460;2023-04-24T09:10:42;7.60;;;4.35;;
58294;SDS011;45705;55.592;37.460;2023-04-24T09:13:08;7.95;;;4.78;;
58294;SDS011;45705;55.592;37.460;2023-04-24T09:15:36;6.40;;;4.90;;
58294;SDS011;45705;55.592;37.460;2023-04-24T09:18:06;6.70;;;4.93;;
58294;SDS011;45705;55.592;37.460;2023-04-24T09:20:32;8.95;;;4.93;;
58294;SDS011;45705;55.592;37.460;2023-04-24T09:22:58;9.70;;;4.97;;
58294;SDS011;45705;55.592;37.460;2023-04-24T09:25:33;9.60;;;4.75;;
58294;SDS011;45705;55.592;37.460;2023-04-24T09:28:04;8.15;;;4.40;;
58294;SDS011;45705;55.592;37.460;2023-04-24T09:30:31;12.05;;;4.55;;
58294;SDS011;45705;55.592;37.460;2023-04-24T09:33:15;12.60;;;4.82;;
58294;SDS011;45705;55.592;37.460;2023-04-24T09:35:41;9.98;;;4.20;;
58294;SDS011;45705;55.592;37.460;2023-04-24T09:38:08;11.18;;;5.28;;
58294;SDS011;45705;55.592;37.460;2023-04-24T09:40:35;6.28;;;4.40;;
58294;SDS011;45705;55.592;37.460;2023-04-24T09:43:01;12.27;;;4.68;;
58294;SDS011;45705;55.592;37.460;2023-04-24T09:45:28;8.25;;;4.35;;
58294;SDS011;45705;55.592;37.460;2023-04-24T09:48:00;9.73;;;4.80;;
58294;SDS011;45705;55.592;37.460;2023-04-24T09:50:26;7.80;;;4.45;;
58294;SDS011;45705;55.592;37.460;2023-04-24T09:52:56;5.68;;;4.32;;
58294;SDS011;45705;55.592;37.460;2023-04-24T09:55:39;6.05;;;4.40;;
58294;SDS011;45705;55.592;37.460;2023-04-24T09:58:09;5.95;;;4.63;;
58294;SDS011;45705;55.592;37.460;2023-04-24T10:00:35;7.38;;;4.60;;
58294;SDS011;45705;55.592;37.460;2023-04-24T10:03:03;14.20;;;4.70;;
58294;SDS011;45705;55.592;37.460;2023-04-24T10:05:31;8.75;;;4.78;;
58294;SDS011;45705;55.592;37.460;2023-04-24T10:08:00;6.43;;;4.30;;
58294;SDS011;45705;55.592;37.460;2023-04-24T10:10:35;7.47;;;4.88;;
58294;SDS011;45705;55.592;37.460;2023-04-24T10:13:04;8.65;;;4.72;;
58294;SDS011;45705;55.592;37.460;2023-04-24T10:15:32;6.30;;;4.97;;
58294;SDS011;45705;55.592;37.460;2023-04-24T10:17:58;9.38;;;4.95;;
58294;SDS011;45705;55.592;37.460;2023-04-24T10:20:26;7.97;;;4.40;;
58294;SDS011;45705;55.592;37.460;2023-04-24T10:22:55;8.77;;;4.47;;
58294;SDS011;45705;55.592;37.460;2023-04-24T10:25:22;9.27;;;4.80;;
58294;SDS011;45705;55.592;37.460;2023-04-24T10:27:53;8.48;;;4.53;;
58294;SDS011;45705;55.592;37.460;2023-04-24T10:30:25;9.15;;;4.28;;
58294;SDS011;45705;55.592;37.460;2023-04-24T10:33:04;7.45;;;4.43;;
58294;SDS011;45705;55.592;37.460;2023-04-24T10:35:32;6.63;;;4.45;;
58294;SDS011;45705;55.592;37.460;2023-04-24T10:38:05;7.25;;;4.53;;
58294;SDS011;45705;55.592;37.460;2023-04-24T10:40:37;9.75;;;4.13;;
58294;SDS011;45705;55.592;37.460;2023-04-24T10:43:03;10.30;;;4.50;;
58294;SDS011;45705;55.592;37.460;2023-04-24T10:45:34;10.90;;;4.30;;
58294;SDS011;45705;55.592;37.460;2023-04-24T10:48:04;6.90;;;4.13;;
58294;SDS011;45705;55.592;37.460;2023-04-24T10:53:23;7.88;;;4.10;;
58294;SDS011;45705;55.592;37.460;2023-04-24T10:56:05;5.72;;;4.20;;
58294;SDS011;45705;55.592;37.460;2023-04-24T10:58:43;6.43;;;4.60;;
58294;SDS011;45705;55.592;37.460;2023-04-24T11:01:24;6.57;;;4.32;;
58294;SDS011;45705;55.592;37.460;2023-04-24T11:03:59;6.85;;;4.03;;
58294;SDS011;45705;55.592;37.460;2023-04-24T11:06:30;8.15;;;3.78;;
58294;SDS011;45705;55.592;37.460;2023-04-24T11:09:04;6.68;;;3.97;;
58294;SDS011;45705;55.592;37.460;2023-04-24T11:11:31;7.47;;;4.13;;
58294;SDS011;45705;55.592;37.460;2023-04-24T11:24:23;5.35;;;3.88;;
58294;SDS011;45705;55.592;37.460;2023-04-24T11:26:55;4.75;;;4.00;;
58294;SDS011;45705;55.592;37.460;2023-04-24T11:29:22;6.22;;;3.60;;
58294;SDS011;45705;55.592;37.460;2023-04-24T11:32:16;12.90;;;3.75;;
58294;SDS011;45705;55.592;37.460;2023-04-24T11:40:00;9.35;;;4.03;;
58294;SDS011;45705;55.592;37.460;2023-04-24T11:42:33;10.02;;;4.15;;
58294;SDS011;45705;55.592;37.460;2023-04-24T11:45:06;4.95;;;3.70;;
58294;SDS011;45705;55.592;37.460;2023-04-24T11:47:36;4.72;;;3.90;;
58294;SDS011;45705;55.592;37.460;2023-04-24T11:50:03;6.30;;;3.85;;
58294;SDS011;45705;55.592;37.460;2023-04-24T11:52:31;4.68;;;3.85;;
58294;SDS011;45705;55.592;37.460;2023-04-24T11:54:58;6.27;;;4.10;;
58294;SDS011;45705;55.592;37.460;2023-04-24T11:57:25;5.95;;;3.92;;
58294;SDS011;45705;55.592;37.460;2023-04-24T11:59:59;6.43;;;3.97;;
58294;SDS011;45705;55.592;37.460;2023-04-24T12:02:37;5.78;;;3.40;;
58294;SDS011;45705;55.592;37.460;2023-04-24T12:05:03;11.80;;;8.80;;
58294;SDS011;45705;55.592;37.460;2023-04-24T12:07:29;6.20;;;3.95;;
58294;SDS011;45705;55.592;37.460;2023-04-24T12:09:56;6.65;;;4.10;;
58294;SDS011;45705;55.592;37.460;2023-04-24T12:12:24;7.03;;;3.72;;
58294;SDS011;45705;55.592;37.460;2023-04-24T12:14:53;4.60;;;3.85;;
58294;SDS011;45705;55.592;37.460;2023-04-24T12:17:24;4.45;;;3.63;;
58294;SDS011;45705;55.592;37.460;2023-04-24T12:20:02;5.00;;;3.90;;
58294;SDS011;45705;55.592;37.460;2023-04-24T12:25:10;4.82;;;3.50;;
58294;SDS011;45705;55.592;37.460;2023-04-24T12:27:37;12.70;;;4.20;;
58294;SDS011;45705;55.592;37.460;2023-04-24T12:30:03;4.85;;;3.38;;
58294;SDS011;45705;55.592;37.460;2023-04-24T12:32:31;6.10;;;3.63;;
58294;SDS011;45705;55.592;37.460;2023-04-24T12:34:57;4.28;;;3.28;;
58294;SDS011;45705;55.592;37.460;2023-04-24T12:37:26;5.85;;;3.55;;
58294;SDS011;45705;55.592;37.460;2023-04-24T12:40:07;6.05;;;3.70;;
58294;SDS011;45705;55.592;37.460;2023-04-24T12:42:34;9.85;;;3.67;;
58294;SDS011;45705;55.592;37.460;2023-04-24T12:45:06;5.07;;;3.67;;
58294;SDS011;45705;55.592;37.460;2023-04-24T12:47:33;11.73;;;4.15;;
58294;SDS011;45705;55.592;37.460;2023-04-24T12:49:59;5.95;;;4.10;;
58294;SDS011;45705;55.592;37.460;2023-04-24T12:52:27;11.90;;;3.60;;
58294;SDS011;45705;55.592;37.460;2023-04-24T12:54:54;6.80;;;3.65;;
58294;SDS011;45705;55.592;37.460;2023-04-24T12:57:23;5.72;;;3.58;;
58294;SDS011;45705;55.592;37.460;2023-04-24T13:02:16;7.88;;;4.13;;
58294;SDS011;45705;55.592;37.460;2023-04-24T13:04:45;5.68;;;4.47;;
58294;SDS011;45705;55.592;37.460;2023-04-24T13:07:12;6.78;;;3.78;;
58294;SDS011;45705;55.592;37.460;2023-04-24T13:09:39;8.85;;;3.80;;
58294;SDS011;45705;55.592;37.460;2023-04-24T13:12:05;12.07;;;4.20;;
58294;SDS011;45705;55.592;37.460;2023-04-24T13:14:31;7.20;;;3.90;;
58294;SDS011;45705;55.592;37.460;2023-04-24T13:16:57;7.90;;;3.60;;
58294;SDS011;45705;55.592;37.460;2023-04-24T13:19:25;7.18;;;3.83;;
58294;SDS011;45705;55.592;37.460;2023-04-24T13:21:52;5.13;;;3.75;;
58294;SDS011;45705;55.592;37.460;2023-04-24T13:24:20;4.43;;;3.45;;
58294;SDS011;45705;55.592;37.460;2023-04-24T13:26:46;7.90;;;4.00;;
58294;SDS011;45705;55.592;37.460;2023-04-24T13:29:11;10.23;;;4.10;;
58294;SDS011;45705;55.592;37.460;2023-04-24T13:31:37;13.27;;;3.83;;
58294;SDS011;45705;55.592;37.460;2023-04-24T13:34:03;5.40;;;3.45;;
58294;SDS011;45705;55.592;37.460;2023-04-24T13:36:29;5.25;;;3.42;;
58294;SDS011;45705;55.592;37.460;2023-04-24T13:38:55;7.82;;;3.50;;
58294;SDS011;45705;55.592;37.460;2023-04-24T13:41:21;8.25;;;4.00;;
58294;SDS011;45705;55.592;37.460;2023-04-24T13:43:47;5.38;;;3.95;;
58294;SDS011;45705;55.592;37.460;2023-04-24T13:46:12;6.13;;;3.25;;
58294;SDS011;45705;55.592;37.460;2023-04-24T13:48:38;6.55;;;3.90;;
58294;SDS011;45705;55.592;37.460;2023-04-24T13:51:04;5.75;;;3.97;;
58294;SDS011;45705;55.592;37.460;2023-04-24T13:53:29;9.30;;;3.40;;
58294;SDS011;45705;55.592;37.460;2023-04-24T13:55:55;7.20;;;3.72;;
58294;SDS011;45705;55.592;37.460;2023-04-24T13:58:21;8.35;;;3.92;;
58294;SDS011;45705;55.592;37.460;2023-04-24T14:00:48;6.32;;;3.30;;
58294;SDS011;45705;55.592;37.460;2023-04-24T14:03:14;7.88;;;4.20;;
58294;SDS011;45705;55.592;37.460;2023-04-24T14:05:40;7.07;;;3.80;;
58294;SDS011;45705;55.592;37.460;2023-04-24T14:08:05;5.00;;;3.13;;
58294;SDS011;45705;55.592;37.460;2023-04-24T14:10:31;10.05;;;3.90;;
58294;SDS011;45705;55.592;37.460;2023-04-24T14:12:57;9.40;;;3.55;;
58294;SDS011;45705;55.592;37.460;2023-04-24T14:15:23;6.03;;;3.75;;
58294;SDS011;45705;55.592;37.460;2023-04-24T14:17:48;5.57;;;3.85;;
58294;SDS011;45705;55.592;37.460;2023-04-24T14:20:15;8.70;;;3.75;;
58294;SDS011;45705;55.592;37.460;2023-04-24T14:22:40;7.28;;;3.92;;
58294;SDS011;45705;55.592;37.460;2023-04-24T14:25:06;7.57;;;3.92;;
58294;SDS011;45705;55.592;37.460;2023-04-24T14:27:32;6.78;;;3.60;;
58294;SDS011;45705;55.592;37.460;2023-04-24T14:29:59;6.63;;;3.80;;
58294;SDS011;45705;55.592;37.460;2023-04-24T14:32:25;9.73;;;3.80;;
58294;SDS011;45705;55.592;37.460;2023-04-24T14:34:51;10.70;;;3.75;;
58294;SDS011;45705;55.592;37.460;2023-04-24T14:37:17;6.85;;;3.83;;
58294;SDS011;45705;55.592;37.460;2023-04-24T14:39:43;8.90;;;3.83;;
58294;SDS011;45705;55.592;37.460;2023-04-24T14:42:08;5.68;;;3.50;;
58294;SDS011;45705;55.592;37.460;2023-04-24T14:44:34;10.05;;;3.78;;
58294;SDS011;45705;55.592;37.460;2023-04-24T14:46:59;5.10;;;3.28;;
58294;SDS011;45705;55.592;37.460;2023-04-24T14:49:25;4.68;;;3.17;;
58294;SDS011;45705;55.592;37.460;2023-04-24T14:51:51;11.88;;;4.03;;
58294;SDS011;45705;55.592;37.460;2023-04-24T14:56:51;6.97;;;3.35;;